sensor_id;sensor_type;location;lat;lon;timestamp;P1;durP1;ratioP1;P2;durP2;ratioP2
37943;SDS011;23767;42.024;23.086;2023-12-20T00:00:58;24.13;;;18.27;;
37943;SDS011;23767;42.024;23.086;2023-12-20T00:03:24;23.60;;;17.60;;
37943;SDS011;23767;42.024;23.086;2023-12-20T00:05:50;23.83;;;17.60;;
37943;SDS011;23767;42.024;23.086;2023-12-20T00:08:16;21.40;;;17.17;;
37943;SDS011;23767;42.024;23.086;2023-12-20T00:10:42;23.73;;;18.03;;
37943;SDS011;23767;42.024;23.086;2023-12-20T00:13:09;26.43;;;19.23;;
37943;SDS011;23767;42.024;23.086;2023-12-20T00:15:34;24.00;;;18.43;;
37943;SDS011;23767;42.024;23.086;2023-12-20T00:18:00;23.57;;;18.40;;
37943;SDS011;23767;42.024;23.086;2023-12-20T00:20:26;22.47;;;16.63;;
37943;SDS011;23767;42.024;23.086;2023-12-20T00:22:54;24.33;;;17.37;;
37943;SDS011;23767;42.024;23.086;2023-12-20T00:25:21;23.03;;;16.57;;
37943;SDS011;23767;42.024;23.086;2023-12-20T00:27:46;21.67;;;16.37;;
37943;SDS011;23767;42.024;23.086;2023-12-20T00:30:12;22.53;;;17.10;;
37943;SDS011;23767;42.024;23.086;2023-12-20T00:32:38;23.40;;;16.70;;
37943;SDS011;23767;42.024;23.086;2023-12-20T00:35:05;23.37;;;17.67;;
37943;SDS011;23767;42.024;23.086;2023-12-20T00:37:31;21.83;;;16.13;;
37943;SDS011;23767;42.024;23.086;2023-12-20T00:39:56;22.57;;;16.63;;
37943;SDS011;23767;42.024;23.086;2023-12-20T00:42:22;23.40;;;17.90;;
37943;SDS011;23767;42.024;23.086;2023-12-20T00:44:47;23.57;;;17.43;;
37943;SDS011;23767;42.024;23.086;2023-12-20T00:47:13;24.80;;;17.73;;
37943;SDS011;23767;42.024;23.086;2023-12-20T00:49:39;24.00;;;16.70;;
37943;SDS011;23767;42.024;23.086;2023-12-20T00:52:04;23.10;;;16.53;;
37943;SDS011;23767;42.024;23.086;2023-12-20T00:54:30;25.30;;;17.90;;
37943;SDS011;23767;42.024;23.086;2023-12-20T00:56:56;24.03;;;16.90;;
37943;SDS011;23767;42.024;23.086;2023-12-20T00:59:21;29.27;;;17.97;;
37943;SDS011;23767;42.024;23.086;2023-12-20T01:01:47;25.33;;;17.40;;
37943;SDS011;23767;42.024;23.086;2023-12-20T01:04:13;26.83;;;18.07;;
37943;SDS011;23767;42.024;23.086;2023-12-20T01:06:38;22.87;;;17.60;;
37943;SDS011;23767;42.024;23.086;2023-12-20T01:09:04;26.03;;;18.17;;
37943;SDS011;23767;42.024;23.086;2023-12-20T01:11:30;23.27;;;16.80;;
37943;SDS011;23767;42.024;23.086;2023-12-20T01:13:55;23.90;;;18.23;;
37943;SDS011;23767;42.024;23.086;2023-12-20T01:16:21;23.30;;;17.03;;
37943;SDS011;23767;42.024;23.086;2023-12-20T01:18:46;21.30;;;16.07;;
37943;SDS011;23767;42.024;23.086;2023-12-20T01:21:12;21.23;;;16.00;;
37943;SDS011;23767;42.024;23.086;2023-12-20T01:23:38;21.47;;;16.37;;
37943;SDS011;23767;42.024;23.086;2023-12-20T01:26:03;20.80;;;15.33;;
37943;SDS011;23767;42.024;23.086;2023-12-20T01:28:30;21.50;;;15.67;;
37943;SDS011;23767;42.024;23.086;2023-12-20T01:30:56;22.27;;;15.63;;
37943;SDS011;23767;42.024;23.086;2023-12-20T01:33:22;20.90;;;14.47;;
37943;SDS011;23767;42.024;23.086;2023-12-20T01:35:48;19.17;;;14.40;;
37943;SDS011;23767;42.024;23.086;2023-12-20T01:38:14;21.97;;;15.13;;
37943;SDS011;23767;42.024;23.086;2023-12-20T01:40:39;19.50;;;14.50;;
37943;SDS011;23767;42.024;23.086;2023-12-20T01:43:08;21.90;;;15.30;;
37943;SDS011;23767;42.024;23.086;2023-12-20T01:45:34;21.83;;;15.40;;
37943;SDS011;23767;42.024;23.086;2023-12-20T01:48:00;20.73;;;15.43;;
37943;SDS011;23767;42.024;23.086;2023-12-20T01:50:28;24.00;;;15.83;;
37943;SDS011;23767;42.024;23.086;2023-12-20T01:52:55;21.37;;;15.47;;
37943;SDS011;23767;42.024;23.086;2023-12-20T01:55:23;22.33;;;15.67;;
37943;SDS011;23767;42.024;23.086;2023-12-20T01:57:50;23.50;;;16.97;;
37943;SDS011;23767;42.024;23.086;2023-12-20T02:00:16;23.47;;;15.90;;
37943;SDS011;23767;42.024;23.086;2023-12-20T02:02:43;20.53;;;15.17;;
37943;SDS011;23767;42.024;23.086;2023-12-20T02:05:10;24.00;;;15.83;;
37943;SDS011;23767;42.024;23.086;2023-12-20T02:07:36;22.20;;;15.73;;
37943;SDS011;23767;42.024;23.086;2023-12-20T02:10:02;24.10;;;15.53;;
37943;SDS011;23767;42.024;23.086;2023-12-20T02:12:31;18.97;;;14.37;;
37943;SDS011;23767;42.024;23.086;2023-12-20T02:14:57;21.67;;;15.70;;
37943;SDS011;23767;42.024;23.086;2023-12-20T02:17:22;22.33;;;14.97;;
37943;SDS011;23767;42.024;23.086;2023-12-20T02:19:49;21.77;;;15.67;;
37943;SDS011;23767;42.024;23.086;2023-12-20T02:22:15;23.87;;;15.47;;
37943;SDS011;23767;42.024;23.086;2023-12-20T02:24:40;23.13;;;16.40;;
37943;SDS011;23767;42.024;23.086;2023-12-20T02:27:06;22.37;;;16.83;;
37943;SDS011;23767;42.024;23.086;2023-12-20T02:29:33;23.47;;;13.43;;
37943;SDS011;23767;42.024;23.086;2023-12-20T02:31:59;20.47;;;14.60;;
37943;SDS011;23767;42.024;23.086;2023-12-20T02:34:25;24.23;;;15.33;;
37943;SDS011;23767;42.024;23.086;2023-12-20T02:36:50;27.40;;;16.87;;
37943;SDS011;23767;42.024;23.086;2023-12-20T02:39:18;19.60;;;14.23;;
37943;SDS011;23767;42.024;23.086;2023-12-20T02:41:44;20.97;;;15.30;;
37943;SDS011;23767;42.024;23.086;2023-12-20T02:44:09;18.37;;;14.03;;
37943;SDS011;23767;42.024;23.086;2023-12-20T02:46:35;23.20;;;14.90;;
37943;SDS011;23767;42.024;23.086;2023-12-20T02:49:01;21.50;;;15.20;;
37943;SDS011;23767;42.024;23.086;2023-12-20T02:51:26;21.90;;;15.37;;
37943;SDS011;23767;42.024;23.086;2023-12-20T02:53:52;19.10;;;14.30;;
37943;SDS011;23767;42.024;23.086;2023-12-20T02:56:18;18.60;;;13.47;;
37943;SDS011;23767;42.024;23.086;2023-12-20T02:58:43;20.80;;;15.03;;
37943;SDS011;23767;42.024;23.086;2023-12-20T03:01:09;20.07;;;14.53;;
37943;SDS011;23767;42.024;23.086;2023-12-20T03:03:35;19.90;;;14.83;;
37943;SDS011;23767;42.024;23.086;2023-12-20T03:06:00;24.43;;;15.33;;
37943;SDS011;23767;42.024;23.086;2023-12-20T03:08:26;22.63;;;14.37;;
37943;SDS011;23767;42.024;23.086;2023-12-20T03:10:52;20.30;;;13.70;;
37943;SDS011;23767;42.024;23.086;2023-12-20T03:13:18;21.97;;;15.67;;
37943;SDS011;23767;42.024;23.086;2023-12-20T03:15:44;30.27;;;13.97;;
37943;SDS011;23767;42.024;23.086;2023-12-20T03:18:10;22.97;;;14.03;;
37943;SDS011;23767;42.024;23.086;2023-12-20T03:20:36;22.33;;;15.00;;
37943;SDS011;23767;42.024;23.086;2023-12-20T03:23:03;22.77;;;15.00;;
37943;SDS011;23767;42.024;23.086;2023-12-20T03:25:29;21.50;;;15.50;;
37943;SDS011;23767;42.024;23.086;2023-12-20T03:27:55;22.83;;;15.77;;
37943;SDS011;23767;42.024;23.086;2023-12-20T03:30:20;22.23;;;15.37;;
37943;SDS011;23767;42.024;23.086;2023-12-20T03:32:46;20.47;;;14.97;;
37943;SDS011;23767;42.024;23.086;2023-12-20T03:35:12;25.33;;;16.87;;
37943;SDS011;23767;42.024;23.086;2023-12-20T03:37:38;21.33;;;14.97;;
37943;SDS011;23767;42.024;23.086;2023-12-20T03:40:04;17.23;;;11.33;;
37943;SDS011;23767;42.024;23.086;2023-12-20T03:42:30;17.27;;;12.47;;
37943;SDS011;23767;42.024;23.086;2023-12-20T03:44:56;16.83;;;12.63;;
37943;SDS011;23767;42.024;23.086;2023-12-20T03:47:21;13.97;;;11.10;;
37943;SDS011;23767;42.024;23.086;2023-12-20T03:49:47;14.67;;;11.10;;
37943;SDS011;23767;42.024;23.086;2023-12-20T03:52:13;16.37;;;11.77;;
37943;SDS011;23767;42.024;23.086;2023-12-20T03:54:38;16.10;;;11.77;;
37943;SDS011;23767;42.024;23.086;2023-12-20T03:57:06;14.40;;;10.93;;
37943;SDS011;23767;42.024;23.086;2023-12-20T03:59:35;15.77;;;11.77;;
37943;SDS011;23767;42.024;23.086;2023-12-20T04:02:01;30.30;;;13.50;;
37943;SDS011;23767;42.024;23.086;2023-12-20T04:04:27;19.40;;;13.23;;
37943;SDS011;23767;42.024;23.086;2023-12-20T04:06:52;16.97;;;12.50;;
37943;SDS011;23767;42.024;23.086;2023-12-20T04:09:18;20.57;;;13.67;;
37943;SDS011;23767;42.024;23.086;2023-12-20T04:11:44;21.67;;;16.27;;
37943;SDS011;23767;42.024;23.086;2023-12-20T04:14:09;24.67;;;17.00;;
37943;SDS011;23767;42.024;23.086;2023-12-20T04:16:35;23.57;;;15.77;;
37943;SDS011;23767;42.024;23.086;2023-12-20T04:19:01;23.97;;;15.60;;
37943;SDS011;23767;42.024;23.086;2023-12-20T04:21:27;18.43;;;12.87;;
37943;SDS011;23767;42.024;23.086;2023-12-20T04:23:53;18.97;;;13.63;;
37943;SDS011;23767;42.024;23.086;2023-12-20T04:26:18;19.03;;;13.67;;
37943;SDS011;23767;42.024;23.086;2023-12-20T04:28:44;19.83;;;14.13;;
37943;SDS011;23767;42.024;23.086;2023-12-20T04:31:09;20.13;;;14.47;;
37943;SDS011;23767;42.024;23.086;2023-12-20T04:33:35;21.00;;;14.70;;
37943;SDS011;23767;42.024;23.086;2023-12-20T04:36:01;24.00;;;15.93;;
37943;SDS011;23767;42.024;23.086;2023-12-20T04:38:26;22.27;;;15.80;;
37943;SDS011;23767;42.024;23.086;2023-12-20T04:40:52;24.60;;;15.87;;
37943;SDS011;23767;42.024;23.086;2023-12-20T04:43:18;21.83;;;15.40;;
37943;SDS011;23767;42.024;23.086;2023-12-20T04:45:43;21.37;;;14.97;;
37943;SDS011;23767;42.024;23.086;2023-12-20T04:48:09;24.27;;;16.03;;
37943;SDS011;23767;42.024;23.086;2023-12-20T04:50:35;22.87;;;15.70;;
37943;SDS011;23767;42.024;23.086;2023-12-20T04:53:00;21.87;;;15.43;;
37943;SDS011;23767;42.024;23.086;2023-12-20T04:55:26;27.87;;;16.07;;
37943;SDS011;23767;42.024;23.086;2023-12-20T04:57:52;21.07;;;14.40;;
37943;SDS011;23767;42.024;23.086;2023-12-20T05:02:53;23.43;;;15.90;;
37943;SDS011;23767;42.024;23.086;2023-12-20T05:05:18;23.50;;;16.00;;
37943;SDS011;23767;42.024;23.086;2023-12-20T05:07:44;25.73;;;17.40;;
37943;SDS011;23767;42.024;23.086;2023-12-20T05:10:10;22.07;;;16.30;;
37943;SDS011;23767;42.024;23.086;2023-12-20T05:12:35;22.57;;;15.83;;
37943;SDS011;23767;42.024;23.086;2023-12-20T05:15:01;23.33;;;16.53;;
37943;SDS011;23767;42.024;23.086;2023-12-20T05:17:26;28.63;;;17.67;;
37943;SDS011;23767;42.024;23.086;2023-12-20T05:19:52;20.77;;;13.20;;
37943;SDS011;23767;42.024;23.086;2023-12-20T05:22:18;23.40;;;15.70;;
37943;SDS011;23767;42.024;23.086;2023-12-20T05:24:45;22.03;;;15.63;;
37943;SDS011;23767;42.024;23.086;2023-12-20T05:27:10;25.67;;;16.87;;
37943;SDS011;23767;42.024;23.086;2023-12-20T05:29:36;19.57;;;12.90;;
37943;SDS011;23767;42.024;23.086;2023-12-20T05:32:02;17.57;;;12.67;;
37943;SDS011;23767;42.024;23.086;2023-12-20T05:34:29;23.80;;;14.77;;
37943;SDS011;23767;42.024;23.086;2023-12-20T05:36:55;18.60;;;13.20;;
37943;SDS011;23767;42.024;23.086;2023-12-20T05:39:22;18.37;;;12.50;;
37943;SDS011;23767;42.024;23.086;2023-12-20T05:41:48;26.17;;;17.10;;
37943;SDS011;23767;42.024;23.086;2023-12-20T05:44:13;18.93;;;12.63;;
37943;SDS011;23767;42.024;23.086;2023-12-20T05:46:39;22.37;;;15.27;;
37943;SDS011;23767;42.024;23.086;2023-12-20T05:49:05;15.73;;;11.13;;
37943;SDS011;23767;42.024;23.086;2023-12-20T05:51:31;16.73;;;11.87;;
37943;SDS011;23767;42.024;23.086;2023-12-20T05:53:56;17.43;;;12.60;;
37943;SDS011;23767;42.024;23.086;2023-12-20T05:56:22;21.67;;;13.87;;
37943;SDS011;23767;42.024;23.086;2023-12-20T05:58:48;20.13;;;11.17;;
37943;SDS011;23767;42.024;23.086;2023-12-20T06:01:16;16.47;;;11.03;;
37943;SDS011;23767;42.024;23.086;2023-12-20T06:03:42;20.67;;;12.40;;
37943;SDS011;23767;42.024;23.086;2023-12-20T06:06:08;19.57;;;13.90;;
37943;SDS011;23767;42.024;23.086;2023-12-20T06:08:34;28.87;;;17.80;;
37943;SDS011;23767;42.024;23.086;2023-12-20T06:11:00;24.00;;;16.23;;
37943;SDS011;23767;42.024;23.086;2023-12-20T06:13:26;28.23;;;16.27;;
37943;SDS011;23767;42.024;23.086;2023-12-20T06:15:53;22.97;;;15.17;;
37943;SDS011;23767;42.024;23.086;2023-12-20T06:18:20;49.80;;;32.77;;
37943;SDS011;23767;42.024;23.086;2023-12-20T06:20:45;27.83;;;14.10;;
37943;SDS011;23767;42.024;23.086;2023-12-20T06:23:11;34.90;;;21.73;;
37943;SDS011;23767;42.024;23.086;2023-12-20T06:25:37;24.93;;;15.73;;
37943;SDS011;23767;42.024;23.086;2023-12-20T06:28:02;37.60;;;23.17;;
37943;SDS011;23767;42.024;23.086;2023-12-20T06:30:28;53.70;;;29.00;;
37943;SDS011;23767;42.024;23.086;2023-12-20T06:32:54;30.90;;;22.73;;
37943;SDS011;23767;42.024;23.086;2023-12-20T06:35:22;24.63;;;16.73;;
37943;SDS011;23767;42.024;23.086;2023-12-20T06:37:48;20.07;;;13.50;;
37943;SDS011;23767;42.024;23.086;2023-12-20T06:40:13;27.97;;;15.90;;
37943;SDS011;23767;42.024;23.086;2023-12-20T06:42:39;24.37;;;14.63;;
37943;SDS011;23767;42.024;23.086;2023-12-20T06:45:05;22.57;;;14.37;;
37943;SDS011;23767;42.024;23.086;2023-12-20T06:47:31;22.97;;;14.27;;
37943;SDS011;23767;42.024;23.086;2023-12-20T06:49:56;26.10;;;16.23;;
37943;SDS011;23767;42.024;23.086;2023-12-20T06:52:22;26.53;;;16.67;;
37943;SDS011;23767;42.024;23.086;2023-12-20T06:54:48;25.87;;;15.10;;
37943;SDS011;23767;42.024;23.086;2023-12-20T06:57:13;20.90;;;14.97;;
37943;SDS011;23767;42.024;23.086;2023-12-20T06:59:40;21.77;;;14.27;;
37943;SDS011;23767;42.024;23.086;2023-12-20T07:02:06;25.07;;;14.80;;
37943;SDS011;23767;42.024;23.086;2023-12-20T07:04:32;20.27;;;13.93;;
37943;SDS011;23767;42.024;23.086;2023-12-20T07:06:57;21.83;;;14.77;;
37943;SDS011;23767;42.024;23.086;2023-12-20T07:09:25;19.30;;;14.10;;
37943;SDS011;23767;42.024;23.086;2023-12-20T07:11:51;26.47;;;18.60;;
37943;SDS011;23767;42.024;23.086;2023-12-20T07:14:17;28.37;;;17.00;;
37943;SDS011;23767;42.024;23.086;2023-12-20T07:16:43;23.60;;;18.00;;
37943;SDS011;23767;42.024;23.086;2023-12-20T07:19:09;23.47;;;16.07;;
37943;SDS011;23767;42.024;23.086;2023-12-20T07:21:34;24.77;;;16.47;;
37943;SDS011;23767;42.024;23.086;2023-12-20T07:24:00;25.00;;;16.63;;
37943;SDS011;23767;42.024;23.086;2023-12-20T07:26:25;30.43;;;19.60;;
37943;SDS011;23767;42.024;23.086;2023-12-20T07:28:51;23.33;;;15.40;;
37943;SDS011;23767;42.024;23.086;2023-12-20T07:31:17;29.33;;;17.00;;
37943;SDS011;23767;42.024;23.086;2023-12-20T07:33:42;27.73;;;18.47;;
37943;SDS011;23767;42.024;23.086;2023-12-20T07:36:08;31.43;;;18.03;;
37943;SDS011;23767;42.024;23.086;2023-12-20T07:38:34;31.10;;;18.60;;
37943;SDS011;23767;42.024;23.086;2023-12-20T07:40:59;30.40;;;20.97;;
37943;SDS011;23767;42.024;23.086;2023-12-20T07:43:25;52.40;;;22.07;;
37943;SDS011;23767;42.024;23.086;2023-12-20T07:45:51;33.40;;;20.50;;
37943;SDS011;23767;42.024;23.086;2023-12-20T07:48:16;39.93;;;22.10;;
37943;SDS011;23767;42.024;23.086;2023-12-20T07:50:42;44.20;;;21.80;;
37943;SDS011;23767;42.024;23.086;2023-12-20T07:53:08;31.60;;;20.57;;
37943;SDS011;23767;42.024;23.086;2023-12-20T07:55:33;40.47;;;22.43;;
37943;SDS011;23767;42.024;23.086;2023-12-20T07:57:59;37.27;;;22.03;;
37943;SDS011;23767;42.024;23.086;2023-12-20T08:00:25;53.57;;;20.93;;
37943;SDS011;23767;42.024;23.086;2023-12-20T08:02:51;41.70;;;24.40;;
37943;SDS011;23767;42.024;23.086;2023-12-20T08:05:17;33.60;;;24.40;;
37943;SDS011;23767;42.024;23.086;2023-12-20T08:07:43;34.10;;;22.07;;
37943;SDS011;23767;42.024;23.086;2023-12-20T08:10:09;37.47;;;22.47;;
37943;SDS011;23767;42.024;23.086;2023-12-20T08:12:35;37.50;;;22.03;;
37943;SDS011;23767;42.024;23.086;2023-12-20T08:15:01;44.00;;;23.17;;
37943;SDS011;23767;42.024;23.086;2023-12-20T08:17:27;36.20;;;23.03;;
37943;SDS011;23767;42.024;23.086;2023-12-20T08:19:52;50.13;;;25.73;;
37943;SDS011;23767;42.024;23.086;2023-12-20T08:22:18;37.07;;;22.37;;
37943;SDS011;23767;42.024;23.086;2023-12-20T08:24:44;38.60;;;22.80;;
37943;SDS011;23767;42.024;23.086;2023-12-20T08:27:09;33.57;;;22.43;;
37943;SDS011;23767;42.024;23.086;2023-12-20T08:29:35;41.30;;;24.50;;
37943;SDS011;23767;42.024;23.086;2023-12-20T08:32:01;41.10;;;24.43;;
37943;SDS011;23767;42.024;23.086;2023-12-20T08:34:27;39.43;;;23.70;;
37943;SDS011;23767;42.024;23.086;2023-12-20T08:36:53;46.20;;;23.10;;
37943;SDS011;23767;42.024;23.086;2023-12-20T08:39:19;38.73;;;25.83;;
37943;SDS011;23767;42.024;23.086;2023-12-20T08:41:44;44.37;;;26.70;;
37943;SDS011;23767;42.024;23.086;2023-12-20T08:44:10;38.33;;;25.10;;
37943;SDS011;23767;42.024;23.086;2023-12-20T08:46:36;42.63;;;26.50;;
37943;SDS011;23767;42.024;23.086;2023-12-20T08:49:02;40.73;;;26.10;;
37943;SDS011;23767;42.024;23.086;2023-12-20T08:51:27;40.63;;;26.27;;
37943;SDS011;23767;42.024;23.086;2023-12-20T08:53:54;46.63;;;26.40;;
37943;SDS011;23767;42.024;23.086;2023-12-20T08:56:20;34.87;;;25.00;;
37943;SDS011;23767;42.024;23.086;2023-12-20T08:58:46;44.97;;;28.63;;
37943;SDS011;23767;42.024;23.086;2023-12-20T09:01:12;38.87;;;26.53;;
37943;SDS011;23767;42.024;23.086;2023-12-20T09:03:38;42.13;;;27.53;;
37943;SDS011;23767;42.024;23.086;2023-12-20T09:06:04;39.70;;;24.97;;
37943;SDS011;23767;42.024;23.086;2023-12-20T09:08:30;43.43;;;27.67;;
37943;SDS011;23767;42.024;23.086;2023-12-20T09:10:56;36.50;;;24.83;;
37943;SDS011;23767;42.024;23.086;2023-12-20T09:13:22;40.33;;;27.37;;
37943;SDS011;23767;42.024;23.086;2023-12-20T09:15:53;45.37;;;29.30;;
37943;SDS011;23767;42.024;23.086;2023-12-20T09:18:22;40.30;;;26.90;;
37943;SDS011;23767;42.024;23.086;2023-12-20T09:20:48;42.87;;;28.30;;
37943;SDS011;23767;42.024;23.086;2023-12-20T09:23:13;41.43;;;29.07;;
37943;SDS011;23767;42.024;23.086;2023-12-20T09:25:39;40.37;;;26.40;;
37943;SDS011;23767;42.024;23.086;2023-12-20T09:28:05;41.40;;;27.97;;
37943;SDS011;23767;42.024;23.086;2023-12-20T09:30:30;41.03;;;28.57;;
37943;SDS011;23767;42.024;23.086;2023-12-20T09:32:56;39.20;;;27.30;;
37943;SDS011;23767;42.024;23.086;2023-12-20T09:35:22;43.30;;;29.47;;
37943;SDS011;23767;42.024;23.086;2023-12-20T09:37:48;43.60;;;29.57;;
37943;SDS011;23767;42.024;23.086;2023-12-20T09:40:14;37.90;;;27.80;;
37943;SDS011;23767;42.024;23.086;2023-12-20T09:42:47;38.20;;;26.47;;
37943;SDS011;23767;42.024;23.086;2023-12-20T09:45:14;38.50;;;26.40;;
37943;SDS011;23767;42.024;23.086;2023-12-20T09:47:43;43.77;;;29.57;;
37943;SDS011;23767;42.024;23.086;2023-12-20T09:50:09;41.70;;;29.30;;
37943;SDS011;23767;42.024;23.086;2023-12-20T09:52:36;40.43;;;29.53;;
37943;SDS011;23767;42.024;23.086;2023-12-20T09:55:04;38.43;;;26.97;;
37943;SDS011;23767;42.024;23.086;2023-12-20T09:57:33;38.57;;;28.07;;
37943;SDS011;23767;42.024;23.086;2023-12-20T09:59:59;41.80;;;28.30;;
37943;SDS011;23767;42.024;23.086;2023-12-20T10:02:25;41.73;;;27.90;;
37943;SDS011;23767;42.024;23.086;2023-12-20T10:04:54;40.23;;;28.07;;
37943;SDS011;23767;42.024;23.086;2023-12-20T10:07:20;39.60;;;27.43;;
37943;SDS011;23767;42.024;23.086;2023-12-20T10:09:47;39.30;;;27.47;;
37943;SDS011;23767;42.024;23.086;2023-12-20T10:12:13;41.27;;;30.17;;
37943;SDS011;23767;42.024;23.086;2023-12-20T10:14:38;39.97;;;29.00;;
37943;SDS011;23767;42.024;23.086;2023-12-20T10:17:05;42.63;;;29.30;;
37943;SDS011;23767;42.024;23.086;2023-12-20T10:19:31;44.33;;;30.20;;
37943;SDS011;23767;42.024;23.086;2023-12-20T10:21:58;40.27;;;29.03;;
37943;SDS011;23767;42.024;23.086;2023-12-20T10:24:25;44.43;;;31.50;;
37943;SDS011;23767;42.024;23.086;2023-12-20T10:27:02;40.97;;;29.47;;
37943;SDS011;23767;42.024;23.086;2023-12-20T10:29:33;37.43;;;27.77;;
37943;SDS011;23767;42.024;23.086;2023-12-20T10:31:59;40.33;;;28.17;;
37943;SDS011;23767;42.024;23.086;2023-12-20T10:34:25;41.70;;;29.80;;
37943;SDS011;23767;42.024;23.086;2023-12-20T10:36:51;39.13;;;28.57;;
37943;SDS011;23767;42.024;23.086;2023-12-20T10:39:17;37.33;;;26.20;;
37943;SDS011;23767;42.024;23.086;2023-12-20T10:41:45;35.83;;;26.00;;
37943;SDS011;23767;42.024;23.086;2023-12-20T10:44:12;36.33;;;26.53;;
37943;SDS011;23767;42.024;23.086;2023-12-20T10:46:39;38.57;;;25.53;;
37943;SDS011;23767;42.024;23.086;2023-12-20T10:49:06;35.20;;;25.57;;
37943;SDS011;23767;42.024;23.086;2023-12-20T10:51:33;32.77;;;24.53;;
37943;SDS011;23767;42.024;23.086;2023-12-20T10:54:00;37.70;;;25.67;;
37943;SDS011;23767;42.024;23.086;2023-12-20T10:56:25;37.33;;;26.03;;
37943;SDS011;23767;42.024;23.086;2023-12-20T10:58:57;33.70;;;26.15;;
37943;SDS011;23767;42.024;23.086;2023-12-20T11:01:27;39.07;;;27.47;;
37943;SDS011;23767;42.024;23.086;2023-12-20T11:03:55;35.33;;;27.13;;
37943;SDS011;23767;42.024;23.086;2023-12-20T11:06:33;38.23;;;28.57;;
37943;SDS011;23767;42.024;23.086;2023-12-20T11:09:10;40.90;;;28.60;;
37943;SDS011;23767;42.024;23.086;2023-12-20T11:14:19;43.53;;;29.67;;
37943;SDS011;23767;42.024;23.086;2023-12-20T11:17:06;42.77;;;30.73;;
37943;SDS011;23767;42.024;23.086;2023-12-20T11:19:32;45.53;;;31.20;;
37943;SDS011;23767;42.024;23.086;2023-12-20T11:22:00;39.60;;;29.27;;
37943;SDS011;23767;42.024;23.086;2023-12-20T11:24:26;43.00;;;30.60;;
37943;SDS011;23767;42.024;23.086;2023-12-20T11:26:54;43.70;;;30.70;;
37943;SDS011;23767;42.024;23.086;2023-12-20T11:32:03;42.50;;;30.90;;
37943;SDS011;23767;42.024;23.086;2023-12-20T11:37:28;47.80;;;32.50;;
37943;SDS011;23767;42.024;23.086;2023-12-20T11:40:00;46.27;;;31.73;;
37943;SDS011;23767;42.024;23.086;2023-12-20T11:42:27;44.73;;;29.80;;
37943;SDS011;23767;42.024;23.086;2023-12-20T11:44:53;41.83;;;30.43;;
37943;SDS011;23767;42.024;23.086;2023-12-20T11:47:18;43.07;;;30.73;;
37943;SDS011;23767;42.024;23.086;2023-12-20T11:49:47;43.57;;;30.13;;
37943;SDS011;23767;42.024;23.086;2023-12-20T11:52:13;46.03;;;31.97;;
37943;SDS011;23767;42.024;23.086;2023-12-20T11:54:39;46.80;;;33.30;;
37943;SDS011;23767;42.024;23.086;2023-12-20T11:57:05;43.87;;;31.27;;
37943;SDS011;23767;42.024;23.086;2023-12-20T11:59:30;44.63;;;32.00;;
37943;SDS011;23767;42.024;23.086;2023-12-20T12:01:56;49.90;;;33.20;;
37943;SDS011;23767;42.024;23.086;2023-12-20T12:04:26;49.03;;;33.00;;
37943;SDS011;23767;42.024;23.086;2023-12-20T12:06:52;50.10;;;33.17;;
37943;SDS011;23767;42.024;23.086;2023-12-20T12:09:17;46.63;;;33.20;;
37943;SDS011;23767;42.024;23.086;2023-12-20T12:11:43;47.47;;;32.03;;
37943;SDS011;23767;42.024;23.086;2023-12-20T12:14:09;44.83;;;32.07;;
37943;SDS011;23767;42.024;23.086;2023-12-20T12:16:35;46.70;;;33.33;;
37943;SDS011;23767;42.024;23.086;2023-12-20T12:19:00;47.03;;;31.77;;
37943;SDS011;23767;42.024;23.086;2023-12-20T12:21:26;53.33;;;34.60;;
37943;SDS011;23767;42.024;23.086;2023-12-20T12:23:52;47.65;;;33.40;;
37943;SDS011;23767;42.024;23.086;2023-12-20T12:26:18;43.65;;;30.83;;
37943;SDS011;23767;42.024;23.086;2023-12-20T12:28:44;48.15;;;32.00;;
37943;SDS011;23767;42.024;23.086;2023-12-20T12:31:13;45.78;;;32.00;;
37943;SDS011;23767;42.024;23.086;2023-12-20T12:33:40;48.97;;;34.17;;
37943;SDS011;23767;42.024;23.086;2023-12-20T12:36:07;47.80;;;34.20;;
37943;SDS011;23767;42.024;23.086;2023-12-20T12:38:32;49.78;;;34.63;;
37943;SDS011;23767;42.024;23.086;2023-12-20T12:40:59;51.33;;;34.83;;
37943;SDS011;23767;42.024;23.086;2023-12-20T12:43:25;49.37;;;36.67;;
37943;SDS011;23767;42.024;23.086;2023-12-20T12:45:51;56.65;;;40.47;;
37943;SDS011;23767;42.024;23.086;2023-12-20T12:48:18;51.58;;;38.50;;
37943;SDS011;23767;42.024;23.086;2023-12-20T12:50:45;59.73;;;41.47;;
37943;SDS011;23767;42.024;23.086;2023-12-20T12:53:11;50.92;;;36.42;;
37943;SDS011;23767;42.024;23.086;2023-12-20T12:55:37;56.42;;;38.10;;
37943;SDS011;23767;42.024;23.086;2023-12-20T12:58:02;61.08;;;41.63;;
37943;SDS011;23767;42.024;23.086;2023-12-20T13:00:28;49.67;;;36.90;;
37943;SDS011;23767;42.024;23.086;2023-12-20T13:02:54;51.00;;;37.33;;
37943;SDS011;23767;42.024;23.086;2023-12-20T13:05:19;51.15;;;37.00;;
37943;SDS011;23767;42.024;23.086;2023-12-20T13:07:45;48.30;;;35.95;;
37943;SDS011;23767;42.024;23.086;2023-12-20T13:10:11;55.50;;;38.13;;
37943;SDS011;23767;42.024;23.086;2023-12-20T13:12:37;48.60;;;35.90;;
37943;SDS011;23767;42.024;23.086;2023-12-20T13:15:02;51.42;;;37.30;;
37943;SDS011;23767;42.024;23.086;2023-12-20T13:17:31;56.47;;;39.75;;
37943;SDS011;23767;42.024;23.086;2023-12-20T13:19:57;64.10;;;44.00;;
37943;SDS011;23767;42.024;23.086;2023-12-20T13:22:22;66.72;;;43.47;;
37943;SDS011;23767;42.024;23.086;2023-12-20T13:24:48;55.00;;;39.63;;
37943;SDS011;23767;42.024;23.086;2023-12-20T13:27:14;56.38;;;39.28;;
37943;SDS011;23767;42.024;23.086;2023-12-20T13:29:39;53.28;;;38.05;;
37943;SDS011;23767;42.024;23.086;2023-12-20T13:32:05;51.28;;;38.38;;
37943;SDS011;23767;42.024;23.086;2023-12-20T13:34:31;51.72;;;37.65;;
37943;SDS011;23767;42.024;23.086;2023-12-20T13:36:57;56.53;;;39.13;;
37943;SDS011;23767;42.024;23.086;2023-12-20T13:39:23;54.58;;;38.25;;
37943;SDS011;23767;42.024;23.086;2023-12-20T13:41:49;53.22;;;36.97;;
37943;SDS011;23767;42.024;23.086;2023-12-20T13:44:14;57.08;;;39.50;;
37943;SDS011;23767;42.024;23.086;2023-12-20T13:46:40;56.03;;;40.60;;
37943;SDS011;23767;42.024;23.086;2023-12-20T13:49:06;55.40;;;38.80;;
37943;SDS011;23767;42.024;23.086;2023-12-20T13:51:32;55.97;;;39.55;;
37943;SDS011;23767;42.024;23.086;2023-12-20T13:53:58;52.97;;;37.50;;
37943;SDS011;23767;42.024;23.086;2023-12-20T13:56:24;53.78;;;38.75;;
37943;SDS011;23767;42.024;23.086;2023-12-20T13:58:50;67.70;;;46.45;;
37943;SDS011;23767;42.024;23.086;2023-12-20T14:01:16;63.63;;;45.47;;
37943;SDS011;23767;42.024;23.086;2023-12-20T14:03:42;61.33;;;44.40;;
37943;SDS011;23767;42.024;23.086;2023-12-20T14:06:08;65.10;;;47.47;;
37943;SDS011;23767;42.024;23.086;2023-12-20T14:08:33;64.27;;;44.90;;
37943;SDS011;23767;42.024;23.086;2023-12-20T14:11:00;68.43;;;44.97;;
37943;SDS011;23767;42.024;23.086;2023-12-20T14:13:26;63.53;;;43.63;;